Lobdell, Mississippi
Current Conditions -  °F | °C
As of 9:15 PM on Tuesday 25 Nov 2014 (Local Time) from KRNV Reporting Station
Clear Clear  
Wind Chill: 36°   Ceiling: Unl
Heat Index: 36°   Visibility: 10mi
Dew Point: 31°   Wind: 3mph
Humidity: 82%   Direction: 140°SE
Pressure: 30.22"   Gusts: NA
Location:  33.7809°N, 90.9672°W
Report Text: KRNV 260315Z AUTO 14003KT 10SM CLR 02/00 A3022 RMK AO2 T00231005
Loading
Personal Weather Stations






























Interactive Weather Map New forecast layout! Learn more

10-Day Weather Forecast

Advertisements
Track Severe Weather on mobile